Currently 83°F in Simi Valley, California, USA
83°F
84°F / 50°F
9 mph SE
0.00"
Saturday, November 16, 2019 2:01 PM PST

Simi Valley, California Weather Summary
Last 36 Hours

Temperature Winds Hourly Humidity Dewpoint
Time Report Norm Report Norm Max Gusts Precip. Rpt. Norm Rpt. Norm Pressure
1Sat 02:01 PM  83.4°F  71°F  9 mph SE  6 mph  20 mph  0.00"  17%  40%  32°F  45°F  N/A
Sat 02:00 PM  83.5°F  71°F  7 mph E  7 mph  24 mph  0.00"  17%  40%  32°F  45°F  N/A
Sat 01:00 PM  84.1°F  71°F  6 mph E  6 mph  26 mph  0.00"  17%  39%  32°F  44°F  N/A
2Sat 12:48 PM  84.3°F  71°F  10 mph NE  6 mph  21 mph  ----  16%  39%  32°F  44°F  N/A
Sat 12:00 PM  82.8°F  70°F  6 mph E  6 mph  24 mph  0.00"  19%  40%  35°F  44°F  N/A
Sat 11:00 AM  80.3°F  68°F  7 mph E  5 mph  26 mph  0.00"  21%  43%  35°F  44°F  N/A
Sat 10:00 AM  77.2°F  66°F  12 mph E  5 mph  30 mph  0.00"  24%  48%  36°F  45°F  N/A
Sat 09:00 AM  74.3°F  62°F  13 mph NE  4 mph  30 mph  0.00"  25%  54%  35°F  44°F  N/A
Sat 08:00 AM  71.2°F  57°F  10 mph SE  4 mph  31 mph  0.00"  28%  58%  35°F  42°F  N/A
Sat 07:00 AM  69.6°F  54°F  9 mph SE  5 mph  27 mph  0.00"  30%  60%  36°F  40°F  N/A
Sat 06:00 AM  68.8°F  54°F  6 mph SE  4 mph  26 mph  0.00"  32%  59%  37°F  40°F  N/A
Sat 05:00 AM  68.5°F  54°F  7 mph E  4 mph  25 mph  0.00"  33%  59%  37°F  40°F  N/A
Sat 04:00 AM  68.2°F  55°F  7 mph E  4 mph  19 mph  0.00"  36%  59%  39°F  40°F  N/A
Sat 03:00 AM  65.8°F  55°F  3 mph NE  4 mph  14 mph  0.00"  44%  59%  43°F  40°F  N/A
Sat 02:00 AM  56.1°F  55°F  1 mph E  4 mph  8 mph  0.00"  69%  58%  46°F  40°F  N/A
Sat 01:00 AM  50.3°F  56°F  calm  4 mph  4 mph  0.00"  80%  58%  44°F  41°F  N/A
3Sat 12:53 AM  50.3°F  56°F  calm  4 mph  4 mph  ----  80%  58%  44°F  41°F  N/A
Sat 12:00 AM  51.0°F  56°F  1 mph E  4 mph  3 mph  0.00"  82%  58%  45°F  41°F  N/A
Fri 11:00 PM  52.2°F  57°F  calm  4 mph  4 mph  0.00"  84%  57%  47°F  41°F  N/A
Fri 10:00 PM  52.2°F  57°F  calm  4 mph  6 mph  0.00"  84%  56%  47°F  41°F  N/A
Fri 09:00 PM  53.0°F  58°F  calm  4 mph  4 mph  0.00"  85%  56%  48°F  42°F  N/A
Fri 08:00 PM  53.7°F  59°F  calm  4 mph  5 mph  0.00"  83%  55%  48°F  42°F  N/A
Fri 07:00 PM  55.9°F  60°F  1 mph SE  4 mph  2 mph  0.00"  82%  54%  50°F  43°F  N/A
Fri 06:00 PM  58.5°F  62°F  calm  3 mph  7 mph  0.00"  82%  53%  53°F  44°F  N/A
Fri 05:00 PM  60.5°F  65°F  2 mph W  5 mph  10 mph  0.00"  81%  50%  54°F  45°F  N/A
Fri 04:00 PM  62.5°F  68°F  5 mph W  6 mph  10 mph  0.00"  77%  45%  55°F  45°F  N/A
Fri 03:00 PM  65.2°F  70°F  5 mph W  7 mph  13 mph  0.00"  70%  41%  55°F  45°F  N/A
Fri 02:00 PM  67.0°F  71°F  5 mph W  7 mph  11 mph  0.00"  63%  39%  54°F  44°F  N/A
Fri 01:00 PM  68.8°F  71°F  1 mph W  6 mph  7 mph  0.00"  57%  38%  52°F  43°F  N/A
Fri 12:00 PM  66.1°F  70°F  calm  6 mph  7 mph  0.00"  67%  38%  55°F  43°F  N/A
Fri 11:00 AM  61.5°F  69°F  calm  5 mph  9 mph  0.00"  77%  41%  54°F  43°F  N/A
Fri 10:00 AM  59.2°F  66°F  5 mph W  5 mph  7 mph  0.00"  82%  46%  54°F  44°F  N/A
Fri 09:00 AM  54.8°F  62°F  1 mph SE  4 mph  4 mph  0.00"  87%  53%  51°F  43°F  N/A
Fri 08:00 AM  49.7°F  57°F  calm  4 mph  3 mph  0.00"  86%  57%  45°F  41°F  N/A
Fri 07:00 AM  47.0°F  54°F  calm  4 mph  3 mph  0.00"  86%  58%  43°F  39°F  N/A
Fri 06:00 AM  46.6°F  54°F  calm  4 mph  4 mph  0.00"  84%  58%  42°F  39°F  N/A
Fri 05:00 AM  46.8°F  54°F  2 mph SW  4 mph  3 mph  0.00"  84%  57%  42°F  39°F  N/A
Fri 04:00 AM  47.5°F  55°F  calm  4 mph  6 mph  0.00"  83%  57%  43°F  39°F  N/A
Fri 03:00 AM  48.8°F  55°F  calm  4 mph  8 mph  0.00"  84%  57%  44°F  39°F  N/A

  1. Current weather data. No green row appears if the current weather data is also the high or low for the current day.
  2. High temperature for the current day.
  3. Low temperature for the current day.

The Simi Valley, California weather pages are a service of WeatherCurrents.
Copyright ©2019  WeatherCurrents. All rights reserved. - Submit questions and comments - Privacy Policy

This page automatically refreshes every 10 minutes.